KMUI/MUI METAR and TAF weather

Enter ICAO airport designator
Station Type Date Time Source
KMUI METAR 2022/01/29 00:56 UTC NOAA

KMUI 290056Z AUTO 03004KT 10SM -UP FEW022 FEW035 M01/M03 A3001 RMK AO2 UPB52 SLP171 P0000 T10121031


Station Type Date Time Source
KMUI Decoded METAR 2022/01/29 00:56 UTC NOAA

Muir Army Air Field / Indiantown, PA, United States (KMUI) 40-26N 076-34W
Jan 28, 2022 - 07:56 PM EST / 2022.01.29 0056 UTC
Wind: from the NNE (030 degrees) at 5 MPH (4 KT):0
Visibility: 10 mile(s):0
Sky conditions: mostly clear
Weather: light precipitation
Precipitation last hour: A trace
Temperature: 29.8 F (-1.2 C)
Windchill: 24 F (-4 C):1
Dew Point: 26.4 F (-3.1 C)
Relative Humidity: 86%
Pressure (altimeter): 30.01 in. Hg (1016 hPa)
ob: KMUI 290056Z AUTO 03004KT 10SM -UP FEW022 FEW035 M01/M03 A3001 RMK AO2 UPB52 SLP171 P0000 T10121031
cycle: 1

Station Type Date Time Source
KMUI TAF 2022/01/28 22:21 UTC NOAA

TAF TAF
AMD KMUI 282212Z 2822/3001 VRB06KT 3200 -SN BKN008 OVC018 620089 QNH3000INS
TEMPO 2822/2824 9000 BKN009 OVC018 620099
BECMG 2903/2905 35012KT 9999 NSW SCT013 OVC020 620209 QNH2987INS
BECMG 2908/2909 35012KT 9999 FEW030 SCT080 QNH2985INS
BECMG 2916/2917 33020G30KT 9999 FEW065 BKN095 OVC130 520004 QNH2979INS
BECMG 2920/2921 32015KT 9999 FEW130 520054 QNH2979INS TX00/2822Z TNM11/2913Z LAST NO
AMDS AFT 2905 NEXT 2911

Example: see airport list